sensor_id;sensor_type;location;lat;lon;timestamp;pressure;altitude;pressure_sealevel;temperature;humidity
4528;BME280;62320;51.520;6.818;2023-01-06T00:09:24;101441.16;;;10.93;100.00
4528;BME280;62320;51.520;6.818;2023-01-06T00:19:25;101424.81;;;10.96;100.00
4528;BME280;62320;51.520;6.818;2023-01-06T00:29:27;101419.59;;;10.91;100.00
4528;BME280;62320;51.520;6.818;2023-01-06T00:39:28;101412.75;;;10.95;100.00
4528;BME280;62320;51.520;6.818;2023-01-06T00:49:30;101392.84;;;10.91;100.00
4528;BME280;62320;51.520;6.818;2023-01-06T00:59:31;101388.53;;;10.91;100.00
4528;BME280;62320;51.520;6.818;2023-01-06T01:09:33;101402.34;;;10.90;100.00
4528;BME280;62320;51.520;6.818;2023-01-06T01:19:35;101402.31;;;10.86;100.00
4528;BME280;62320;51.520;6.818;2023-01-06T01:29:37;101397.09;;;10.83;100.00
4528;BME280;62320;51.520;6.818;2023-01-06T01:39:38;101404.84;;;10.84;100.00
4528;BME280;62320;51.520;6.818;2023-01-06T01:49:43;101391.06;;;10.84;100.00
4528;BME280;62320;51.520;6.818;2023-01-06T01:59:46;101381.56;;;10.84;100.00
4528;BME280;62320;51.520;6.818;2023-01-06T02:10:06;101396.22;;;10.81;100.00
4528;BME280;62320;51.520;6.818;2023-01-06T02:51:42;101346.16;;;10.75;100.00
4528;BME280;62320;51.520;6.818;2023-01-06T03:01:49;101329.72;;;10.69;100.00
4528;BME280;62320;51.520;6.818;2023-01-06T03:11:53;101333.16;;;10.68;100.00
4528;BME280;62320;51.520;6.818;2023-01-06T03:21:54;101320.22;;;10.66;100.00
4528;BME280;62320;51.520;6.818;2023-01-06T03:32:11;101314.16;;;10.64;100.00
4528;BME280;62320;51.520;6.818;2023-01-06T03:42:24;101279.69;;;10.65;100.00
4528;BME280;62320;51.520;6.818;2023-01-06T03:52:57;101287.44;;;10.62;100.00
4528;BME280;62320;51.520;6.818;2023-01-06T04:03:00;101263.28;;;10.63;100.00
4528;BME280;62320;51.520;6.818;2023-01-06T04:13:01;101274.47;;;10.61;99.88
4528;BME280;62320;51.520;6.818;2023-01-06T04:23:03;101254.69;;;10.64;100.00
4528;BME280;62320;51.520;6.818;2023-01-06T04:33:04;101244.34;;;10.63;100.00
4528;BME280;62320;51.520;6.818;2023-01-06T04:43:06;101225.41;;;10.67;99.47
4528;BME280;62320;51.520;6.818;2023-01-06T04:53:08;101227.94;;;10.65;100.00
4528;BME280;62320;51.520;6.818;2023-01-06T05:03:11;101210.72;;;10.64;99.94
4528;BME280;62320;51.520;6.818;2023-01-06T05:13:12;101214.19;;;10.68;100.00
4528;BME280;62320;51.520;6.818;2023-01-06T05:23:14;101203.00;;;10.67;100.00
4528;BME280;62320;51.520;6.818;2023-01-06T05:33:16;101226.28;;;10.67;100.00
4528;BME280;62320;51.520;6.818;2023-01-06T05:43:18;101225.44;;;10.71;100.00
4528;BME280;62320;51.520;6.818;2023-01-06T05:53:19;101223.72;;;10.75;100.00
4528;BME280;62320;51.520;6.818;2023-01-06T06:03:21;101216.81;;;10.74;100.00
4528;BME280;62320;51.520;6.818;2023-01-06T06:13:22;101191.81;;;10.71;99.98
4528;BME280;62320;51.520;6.818;2023-01-06T06:23:24;101198.72;;;10.74;99.70
4528;BME280;62320;51.520;6.818;2023-01-06T06:33:26;101190.06;;;10.70;99.58
4528;BME280;62320;51.520;6.818;2023-01-06T06:43:27;101190.09;;;10.72;99.76
4528;BME280;62320;51.520;6.818;2023-01-06T06:53:29;101190.09;;;10.72;99.68
4528;BME280;62320;51.520;6.818;2023-01-06T07:03:31;101191.78;;;10.70;99.80
4528;BME280;62320;51.520;6.818;2023-01-06T07:13:32;101179.72;;;10.70;99.07
4528;BME280;62320;51.520;6.818;2023-01-06T07:23:34;101178.88;;;10.71;99.72
4528;BME280;62320;51.520;6.818;2023-01-06T07:33:35;101190.09;;;10.73;99.51
4528;BME280;62320;51.520;6.818;2023-01-06T07:43:36;101187.50;;;10.72;99.51
4528;BME280;62320;51.520;6.818;2023-01-06T07:53:38;101184.03;;;10.74;99.87
4528;BME280;62320;51.520;6.818;2023-01-06T08:03:39;101193.53;;;10.75;99.62
4528;BME280;62320;51.520;6.818;2023-01-06T08:13:41;101208.22;;;10.78;99.35
4528;BME280;62320;51.520;6.818;2023-01-06T08:23:42;101231.50;;;10.77;100.00
4528;BME280;62320;51.520;6.818;2023-01-06T08:33:44;101243.59;;;10.81;100.00
4528;BME280;62320;51.520;6.818;2023-01-06T08:43:47;101252.22;;;10.83;100.00
4528;BME280;62320;51.520;6.818;2023-01-06T08:53:49;101248.78;;;10.82;100.00
4528;BME280;62320;51.520;6.818;2023-01-06T09:03:51;101253.09;;;10.85;100.00
4528;BME280;62320;51.520;6.818;2023-01-06T09:13:53;101267.78;;;10.87;100.00
4528;BME280;62320;51.520;6.818;2023-01-06T09:23:54;101291.94;;;10.89;100.00
4528;BME280;62320;51.520;6.818;2023-01-06T09:33:56;101312.66;;;10.92;100.00
4528;BME280;62320;51.520;6.818;2023-01-06T09:44:06;101317.81;;;10.91;100.00
4528;BME280;62320;51.520;6.818;2023-01-06T10:04:28;101314.44;;;10.99;100.00
4528;BME280;62320;51.520;6.818;2023-01-06T10:14:43;101323.09;;;11.03;100.00
4528;BME280;62320;51.520;6.818;2023-01-06T10:25:34;101332.59;;;11.05;100.00
4528;BME280;62320;51.520;6.818;2023-01-06T10:35:12;101315.38;;;11.12;100.00
4528;BME280;62320;51.520;6.818;2023-01-06T10:45:13;101311.97;;;11.17;100.00
4528;BME280;62320;51.520;6.818;2023-01-06T10:55:28;101318.94;;;11.27;100.00
4528;BME280;62320;51.520;6.818;2023-01-06T11:05:33;101324.13;;;11.33;100.00
4528;BME280;62320;51.520;6.818;2023-01-06T11:15:39;101328.53;;;11.42;100.00
4528;BME280;62320;51.520;6.818;2023-01-06T11:25:41;101317.31;;;11.44;100.00
4528;BME280;62320;51.520;6.818;2023-01-06T11:35:43;101329.44;;;11.52;100.00
4528;BME280;62320;51.520;6.818;2023-01-06T11:45:55;101324.28;;;11.58;100.00
4528;BME280;62320;51.520;6.818;2023-01-06T11:56:00;101318.25;;;11.63;100.00
4528;BME280;62320;51.520;6.818;2023-01-06T12:06:27;101320.94;;;11.81;100.00
4528;BME280;62320;51.520;6.818;2023-01-06T12:16:37;101329.59;;;11.86;100.00
4528;BME280;62320;51.520;6.818;2023-01-06T12:26:40;101322.72;;;11.90;99.87
4528;BME280;62320;51.520;6.818;2023-01-06T12:36:58;101316.72;;;12.04;98.46
4528;BME280;62320;51.520;6.818;2023-01-06T12:57:37;101315.84;;;12.05;97.05
4528;BME280;62320;51.520;6.818;2023-01-06T13:07:49;101310.66;;;12.04;97.56
4528;BME280;62320;51.520;6.818;2023-01-06T13:38:53;101308.09;;;12.11;96.77
4528;BME280;62320;51.520;6.818;2023-01-06T13:49:01;101301.16;;;12.09;96.49
4528;BME280;62320;51.520;6.818;2023-01-06T13:59:20;101306.38;;;12.12;96.65
4528;BME280;62320;51.520;6.818;2023-01-06T14:09:23;101317.59;;;12.12;97.25
4528;BME280;62320;51.520;6.818;2023-01-06T14:19:32;101305.50;;;12.11;98.34
4528;BME280;62320;51.520;6.818;2023-01-06T14:29:44;101307.22;;;12.11;97.87
4528;BME280;62320;51.520;6.818;2023-01-06T14:39:48;101308.94;;;12.13;98.82
4528;BME280;62320;51.520;6.818;2023-01-06T14:50:11;101308.06;;;12.07;99.09
4528;BME280;62320;51.520;6.818;2023-01-06T15:00:17;101317.56;;;11.99;98.93
4528;BME280;62320;51.520;6.818;2023-01-06T15:10:20;101322.75;;;11.94;99.77
4528;BME280;62320;51.520;6.818;2023-01-06T15:20:42;101308.88;;;11.86;100.00
4528;BME280;62320;51.520;6.818;2023-01-06T15:30:48;101308.00;;;11.80;99.94
4528;BME280;62320;51.520;6.818;2023-01-06T15:40:50;101317.47;;;11.73;100.00
4528;BME280;62320;51.520;6.818;2023-01-06T15:50:52;101316.59;;;11.68;100.00
4528;BME280;62320;51.520;6.818;2023-01-06T16:00:59;101308.81;;;11.68;100.00
4528;BME280;62320;51.520;6.818;2023-01-06T16:21:38;101307.88;;;11.63;100.00
4528;BME280;62320;51.520;6.818;2023-01-06T16:31:40;101320.84;;;11.63;100.00
4528;BME280;62320;51.520;6.818;2023-01-06T16:51:58;101326.84;;;11.55;100.00
4528;BME280;62320;51.520;6.818;2023-01-06T17:02:05;101324.25;;;11.53;100.00
4528;BME280;62320;51.520;6.818;2023-01-06T17:12:13;101328.53;;;11.48;100.00
4528;BME280;62320;51.520;6.818;2023-01-06T17:22:38;101333.69;;;11.45;100.00
4528;BME280;62320;51.520;6.818;2023-01-06T17:32:41;101332.78;;;11.34;100.00
4528;BME280;62320;51.520;6.818;2023-01-06T17:42:46;101331.88;;;11.26;100.00
4528;BME280;62320;51.520;6.818;2023-01-06T17:52:50;101344.81;;;11.27;100.00
4528;BME280;62320;51.520;6.818;2023-01-06T18:03:22;101332.75;;;11.26;100.00
4528;BME280;62320;51.520;6.818;2023-01-06T18:13:28;101324.97;;;11.26;100.00
4528;BME280;62320;51.520;6.818;2023-01-06T18:23:32;101328.41;;;11.25;100.00
4528;BME280;62320;51.520;6.818;2023-01-06T18:33:35;101329.28;;;11.26;100.00
4528;BME280;62320;51.520;6.818;2023-01-06T18:43:38;101326.66;;;11.24;100.00
4528;BME280;62320;51.520;6.818;2023-01-06T18:53:41;101333.56;;;11.22;100.00
4528;BME280;62320;51.520;6.818;2023-01-06T19:04:04;101337.06;;;11.26;100.00
4528;BME280;62320;51.520;6.818;2023-01-06T19:14:12;101336.19;;;11.24;100.00
4528;BME280;62320;51.520;6.818;2023-01-06T19:34:30;101305.97;;;11.27;100.00
4528;BME280;62320;51.520;6.818;2023-01-06T19:44:33;101313.75;;;11.27;100.00
4528;BME280;62320;51.520;6.818;2023-01-06T19:54:36;101318.09;;;11.28;100.00
4528;BME280;62320;51.520;6.818;2023-01-06T20:04:39;101320.66;;;11.30;100.00
4528;BME280;62320;51.520;6.818;2023-01-06T20:14:41;101305.09;;;11.22;100.00
4528;BME280;62320;51.520;6.818;2023-01-06T20:24:42;101293.03;;;11.26;100.00
4528;BME280;62320;51.520;6.818;2023-01-06T20:34:44;101292.13;;;11.18;100.00
4528;BME280;62320;51.520;6.818;2023-01-06T20:44:45;101305.06;;;11.16;100.00
4528;BME280;62320;51.520;6.818;2023-01-06T20:54:47;101295.53;;;11.09;100.00
4528;BME280;62320;51.520;6.818;2023-01-06T21:04:48;101299.81;;;11.06;100.00
4528;BME280;62320;51.520;6.818;2023-01-06T21:14:49;101312.75;;;11.07;100.00
4528;BME280;62320;51.520;6.818;2023-01-06T21:24:51;101311.03;;;11.11;100.00
4528;BME280;62320;51.520;6.818;2023-01-06T21:34:52;101301.53;;;11.05;100.00
4528;BME280;62320;51.520;6.818;2023-01-06T21:44:54;101300.66;;;11.05;100.00
4528;BME280;62320;51.520;6.818;2023-01-06T21:54:55;101288.59;;;11.07;100.00
4528;BME280;62320;51.520;6.818;2023-01-06T22:05:00;101287.72;;;11.06;100.00
4528;BME280;62320;51.520;6.818;2023-01-06T22:15:02;101286.91;;;11.10;100.00
4528;BME280;62320;51.520;6.818;2023-01-06T22:25:05;101286.03;;;11.10;100.00
4528;BME280;62320;51.520;6.818;2023-01-06T22:35:07;101287.78;;;11.12;100.00
4528;BME280;62320;51.520;6.818;2023-01-06T22:45:09;101286.94;;;11.16;100.00
4528;BME280;62320;51.520;6.818;2023-01-06T22:55:11;101291.22;;;11.11;100.00
4528;BME280;62320;51.520;6.818;2023-01-06T23:05:12;101299.88;;;11.16;100.00
4528;BME280;62320;51.520;6.818;2023-01-06T23:15:14;101291.22;;;11.10;100.00
4528;BME280;62320;51.520;6.818;2023-01-06T23:25:15;101285.16;;;11.11;100.00
4528;BME280;62320;51.520;6.818;2023-01-06T23:35:17;101273.94;;;11.07;100.00
4528;BME280;62320;51.520;6.818;2023-01-06T23:45:18;101285.09;;;11.02;100.00
4528;BME280;62320;51.520;6.818;2023-01-06T23:55:19;101284.25;;;11.00;100.00
